Terminal Aerodrome Forecast
Issued by NWS

Home | Current Version | Previous Version | Text Only | Print | Product List | Glossary On
Versions: 1 2 3 4 5 6 7 8 9 10 11 12 13 14 15 16
591
FTUS41 KPBZ 231141
TAFZZV
TAF
KZZV 231141Z 2312/2412 21008KT P6SM VCSH BKN008
     FM231500 23012G20KT 5SM SHRA VCTS OVC015CB
     FM232200 23008KT 3SM SHRA BR OVC008
     FM240200 26004KT P6SM VCSH OVC010=

USA.gov is the U.S. government's official web portal to all federal, state and local government web resources and services.